Time;durP1;ratioP1;P1;durP2;ratioP2;P2;SDS_P1;SDS_P2;PMS_P1;PMS_P2;Temp;Humidity;BMP_temperature;BMP_pressure;BME280_temperature;BME280_humidity;BME280_pressure;Samples;Min_cycle;Max_cycle;Signal;HPM_P1;HPM_P2
2022/03/28 00:02:07;;;;;;;7.63;6.88;;;;;;;;;;5055819;28;20221;-82
2022/03/28 00:04:34;;;;;;;8.50;6.72;;;;;;;;;;5055993;28;20233;-82
2022/03/28 00:07:02;;;;;;;6.63;5.93;;;;;;;;;;5056337;28;20194;-82
2022/03/28 00:09:30;;;;;;;6.70;6.00;;;;;;;;;;5055643;28;20198;-82
2022/03/28 00:11:57;;;;;;;7.65;6.78;;;;;;;;;;5056218;28;20225;-82
2022/03/28 00:14:24;;;;;;;8.10;6.72;;;;;;;;;;5055710;28;20202;-82
2022/03/28 00:16:54;;;;;;;9.52;6.95;;;;;;;;;;5056506;28;20201;-82
2022/03/28 00:19:22;;;;;;;8.48;7.18;;;;;;;;;;5055551;28;20259;-82
2022/03/28 00:21:50;;;;;;;8.10;7.28;;;;;;;;;;5056206;28;20221;-81
2022/03/28 00:24:17;;;;;;;8.88;6.63;;;;;;;;;;5055875;28;20240;-82
2022/03/28 00:26:44;;;;;;;8.27;6.55;;;;;;;;;;5055508;28;20209;-81
2022/03/28 00:29:12;;;;;;;8.63;6.07;;;;;;;;;;5054975;28;20569;-82
2022/03/28 00:31:39;;;;;;;6.88;6.18;;;;;;;;;;5055382;28;20253;-81
2022/03/28 00:34:08;;;;;;;8.52;6.88;;;;;;;;;;5055615;28;20252;-82
2022/03/28 00:36:36;;;;;;;8.43;7.13;;;;;;;;;;5055089;28;20206;-82
2022/03/28 00:39:04;;;;;;;6.47;5.88;;;;;;;;;;5054948;28;20276;-82
2022/03/28 00:41:32;;;;;;;6.68;5.78;;;;;;;;;;5054698;28;20209;-81
2022/03/28 00:44:01;;;;;;;6.93;5.65;;;;;;;;;;5055327;28;20198;-82
2022/03/28 00:46:28;;;;;;;5.20;4.70;;;;;;;;;;5055357;28;20259;-82
2022/03/28 00:48:56;;;;;;;4.03;3.65;;;;;;;;;;5055591;28;20205;-81
2022/03/28 00:51:24;;;;;;;3.75;3.40;;;;;;;;;;5055660;28;20694;-81
2022/03/28 00:53:53;;;;;;;3.60;3.30;;;;;;;;;;5055414;28;20212;-81
2022/03/28 00:56:21;;;;;;;5.65;4.85;;;;;;;;;;5055699;28;20220;-81
2022/03/28 00:58:48;;;;;;;5.40;4.88;;;;;;;;;;5055386;28;20202;-81
2022/03/28 01:01:16;;;;;;;5.30;4.40;;;;;;;;;;5055131;28;20781;-82
2022/03/28 01:03:44;;;;;;;6.70;5.07;;;;;;;;;;5055920;28;20209;-81
2022/03/28 01:06:12;;;;;;;6.40;5.72;;;;;;;;;;5055226;28;20205;-81
2022/03/28 01:08:40;;;;;;;6.18;5.50;;;;;;;;;;5055463;28;20296;-83
2022/03/28 01:11:10;;;;;;;5.70;5.15;;;;;;;;;;5055491;28;20244;-82
2022/03/28 01:13:40;;;;;;;5.75;4.43;;;;;;;;;;5055506;28;20292;-82
2022/03/28 01:16:08;;;;;;;5.15;4.65;;;;;;;;;;5055054;28;20198;-82
2022/03/28 01:18:35;;;;;;;5.50;4.97;;;;;;;;;;5055794;28;20206;-82
2022/03/28 01:21:05;;;;;;;5.97;5.30;;;;;;;;;;5054601;28;20308;-82
2022/03/28 01:23:32;;;;;;;5.80;5.07;;;;;;;;;;5055464;28;20202;-82
2022/03/28 01:26:00;;;;;;;7.20;5.28;;;;;;;;;;5054508;28;20217;-82
2022/03/28 01:28:28;;;;;;;6.65;5.95;;;;;;;;;;5054817;28;20193;-82
2022/03/28 01:30:55;;;;;;;6.03;5.03;;;;;;;;;;5054965;28;20228;-81
2022/03/28 01:33:23;;;;;;;6.28;5.32;;;;;;;;;;5054388;28;20658;-81
2022/03/28 01:35:52;;;;;;;6.47;4.60;;;;;;;;;;5054651;28;20259;-81
2022/03/28 01:38:21;;;;;;;6.93;6.07;;;;;;;;;;5054877;28;20678;-81
2022/03/28 01:40:51;;;;;;;6.22;5.00;;;;;;;;;;5054310;28;20245;-82
2022/03/28 01:43:19;;;;;;;6.72;5.45;;;;;;;;;;5054738;28;20228;-82
2022/03/28 01:45:46;;;;;;;5.38;4.65;;;;;;;;;;5054899;28;20225;-80
2022/03/28 01:48:14;;;;;;;6.75;5.18;;;;;;;;;;5054426;28;20202;-82
2022/03/28 01:50:42;;;;;;;4.90;4.25;;;;;;;;;;5053930;28;20226;-82
2022/03/28 01:53:09;;;;;;;4.40;4.00;;;;;;;;;;5054032;28;20193;-82
2022/03/28 01:55:39;;;;;;;5.18;4.60;;;;;;;;;;5054238;28;20197;-82
2022/03/28 01:58:07;;;;;;;4.72;4.22;;;;;;;;;;5054234;28;20212;-82
2022/03/28 02:00:34;;;;;;;6.32;4.78;;;;;;;;;;5054109;28;20644;-82
2022/03/28 02:03:02;;;;;;;4.68;3.72;;;;;;;;;;5054005;28;20205;-82
2022/03/28 02:05:29;;;;;;;5.82;5.32;;;;;;;;;;5054163;28;20225;-82
2022/03/28 02:07:57;;;;;;;4.65;3.83;;;;;;;;;;5054117;28;20204;-82
2022/03/28 02:10:25;;;;;;;5.10;4.60;;;;;;;;;;5053911;28;20225;-82
2022/03/28 02:12:54;;;;;;;4.72;4.32;;;;;;;;;;5053927;28;20729;-82
2022/03/28 02:15:22;;;;;;;4.30;3.90;;;;;;;;;;5054280;28;20607;-82
2022/03/28 02:17:50;;;;;;;5.30;4.75;;;;;;;;;;5053834;28;20205;-81
2022/03/28 02:20:17;;;;;;;4.30;3.90;;;;;;;;;;5053912;28;20232;-82
2022/03/28 02:22:47;;;;;;;4.35;3.83;;;;;;;;;;5054255;28;20658;-82
2022/03/28 02:25:15;;;;;;;4.05;3.65;;;;;;;;;;5054361;28;20233;-82
2022/03/28 02:27:44;;;;;;;4.47;4.07;;;;;;;;;;5053756;28;20248;-82
2022/03/28 02:30:15;;;;;;;6.32;4.95;;;;;;;;;;5053915;28;20228;-82
2022/03/28 02:32:42;;;;;;;4.75;4.22;;;;;;;;;;5054852;28;20182;-82
2022/03/28 02:35:11;;;;;;;4.07;3.70;;;;;;;;;;5054924;28;20218;-82
2022/03/28 02:37:39;;;;;;;4.70;4.25;;;;;;;;;;5054037;28;20300;-81
2022/03/28 02:40:09;;;;;;;4.78;4.38;;;;;;;;;;5054566;28;20214;-81
2022/03/28 02:42:36;;;;;;;4.13;3.60;;;;;;;;;;5054765;28;20650;-81
2022/03/28 02:45:05;;;;;;;4.55;4.15;;;;;;;;;;5053970;28;20209;-81
2022/03/28 02:47:34;;;;;;;4.22;3.67;;;;;;;;;;5054194;28;20214;-81
2022/03/28 02:50:02;;;;;;;3.50;3.20;;;;;;;;;;5054098;28;20255;-81
2022/03/28 02:52:29;;;;;;;4.60;4.20;;;;;;;;;;5054420;28;20689;-82
2022/03/28 02:54:56;;;;;;;4.60;4.13;;;;;;;;;;5054251;28;20193;-82
2022/03/28 02:57:24;;;;;;;4.45;4.03;;;;;;;;;;5053481;28;20201;-81
2022/03/28 02:59:51;;;;;;;4.00;3.60;;;;;;;;;;5053702;28;20563;-82
2022/03/28 03:02:18;;;;;;;4.38;3.97;;;;;;;;;;5057368;28;20232;-82
2022/03/28 03:04:47;;;;;;;4.53;4.13;;;;;;;;;;5058563;28;20563;-82
2022/03/28 03:07:14;;;;;;;3.72;3.42;;;;;;;;;;5058308;28;20643;-81
2022/03/28 03:09:42;;;;;;;3.55;3.25;;;;;;;;;;5058551;28;20573;-82
2022/03/28 03:12:11;;;;;;;4.13;3.42;;;;;;;;;;5058823;28;20228;-82
2022/03/28 03:14:38;;;;;;;4.15;3.75;;;;;;;;;;5058512;28;20213;-81
2022/03/28 03:17:06;;;;;;;4.88;4.38;;;;;;;;;;5058612;28;20202;-81
2022/03/28 03:19:34;;;;;;;4.05;3.40;;;;;;;;;;5058257;28;20194;-82
2022/03/28 03:22:03;;;;;;;4.05;3.65;;;;;;;;;;5058019;28;20633;-82
2022/03/28 03:24:31;;;;;;;3.42;3.13;;;;;;;;;;5058076;28;20286;-82
2022/03/28 03:26:59;;;;;;;3.38;3.08;;;;;;;;;;5058460;28;20225;-82
2022/03/28 03:29:26;;;;;;;4.43;3.78;;;;;;;;;;5058037;28;20654;-82
2022/03/28 03:31:53;;;;;;;4.03;3.58;;;;;;;;;;5057959;28;20703;-82
2022/03/28 03:34:21;;;;;;;4.70;4.25;;;;;;;;;;5058991;28;20205;-82
2022/03/28 03:36:48;;;;;;;4.45;4.05;;;;;;;;;;5058039;28;20216;-82
2022/03/28 03:39:17;;;;;;;4.05;3.75;;;;;;;;;;5058130;28;20211;-82
2022/03/28 03:41:44;;;;;;;4.20;3.67;;;;;;;;;;5058145;28;20223;-82
2022/03/28 03:44:12;;;;;;;3.00;2.80;;;;;;;;;;5057831;28;20201;-81
2022/03/28 03:46:39;;;;;;;2.95;2.75;;;;;;;;;;5057746;28;20226;-82
2022/03/28 03:49:06;;;;;;;3.20;2.88;;;;;;;;;;5057355;28;20209;-82
2022/03/28 03:51:34;;;;;;;4.95;2.88;;;;;;;;;;5057269;28;20259;-81
2022/03/28 03:54:01;;;;;;;3.42;3.13;;;;;;;;;;5056614;28;20197;-82
2022/03/28 03:56:30;;;;;;;2.70;2.50;;;;;;;;;;5057615;28;20194;-81
2022/03/28 03:58:57;;;;;;;2.83;2.63;;;;;;;;;;5057111;28;20209;-82
2022/03/28 04:01:26;;;;;;;3.25;2.95;;;;;;;;;;5057478;28;20222;-82
2022/03/28 04:03:53;;;;;;;3.30;3.00;;;;;;;;;;5057215;28;20201;-81
2022/03/28 04:06:21;;;;;;;3.65;3.35;;;;;;;;;;5056903;28;20232;-82
2022/03/28 04:08:48;;;;;;;3.83;3.38;;;;;;;;;;5056096;28;20198;-81
2022/03/28 04:11:16;;;;;;;3.28;3.05;;;;;;;;;;5056819;28;20508;-81
2022/03/28 04:13:44;;;;;;;3.35;3.05;;;;;;;;;;5056160;28;20251;-82
2022/03/28 04:16:12;;;;;;;4.15;3.85;;;;;;;;;;5057195;28;20642;-83
2022/03/28 04:18:39;;;;;;;3.97;3.50;;;;;;;;;;5057160;28;20216;-85
2022/03/28 04:21:06;;;;;;;5.00;3.72;;;;;;;;;;5058352;28;20214;-84
2022/03/28 04:23:34;;;;;;;3.38;3.08;;;;;;;;;;5058535;28;20209;-85
2022/03/28 04:26:01;;;;;;;3.90;3.53;;;;;;;;;;5057867;28;20259;-83
2022/03/28 04:28:28;;;;;;;2.80;2.60;;;;;;;;;;5057756;28;21133;-84
2022/03/28 04:30:58;;;;;;;3.85;3.55;;;;;;;;;;5058264;28;20214;-83
2022/03/28 04:33:25;;;;;;;5.30;3.63;;;;;;;;;;5057789;28;20214;-83
2022/03/28 04:35:52;;;;;;;3.70;3.40;;;;;;;;;;5057750;28;20216;-83
2022/03/28 04:38:20;;;;;;;3.35;3.05;;;;;;;;;;5056696;28;20197;-83
2022/03/28 04:40:47;;;;;;;4.80;3.88;;;;;;;;;;5056087;28;20578;-83
2022/03/28 04:43:15;;;;;;;3.65;3.35;;;;;;;;;;5057100;28;20201;-83
2022/03/28 04:45:42;;;;;;;4.22;3.80;;;;;;;;;;5056577;28;20212;-83
2022/03/28 04:48:11;;;;;;;3.17;2.88;;;;;;;;;;5056345;28;20229;-82
2022/03/28 04:50:39;;;;;;;2.97;2.67;;;;;;;;;;5056055;28;20600;-82
2022/03/28 04:53:06;;;;;;;3.67;3.38;;;;;;;;;;5056444;28;20198;-83
2022/03/28 04:55:34;;;;;;;3.35;3.05;;;;;;;;;;5056940;28;20202;-83
2022/03/28 04:58:02;;;;;;;3.00;2.70;;;;;;;;;;5056684;28;20292;-83
2022/03/28 05:00:29;;;;;;;3.60;3.30;;;;;;;;;;5056753;28;20222;-82
2022/03/28 05:02:57;;;;;;;3.97;3.67;;;;;;;;;;5057201;28;20205;-83
2022/03/28 05:05:26;;;;;;;2.90;2.63;;;;;;;;;;5057553;28;20255;-83
2022/03/28 05:07:53;;;;;;;2.90;2.50;;;;;;;;;;5057532;28;20225;-83
2022/03/28 05:10:21;;;;;;;2.83;2.63;;;;;;;;;;5057169;28;20214;-83
2022/03/28 05:12:48;;;;;;;3.33;3.03;;;;;;;;;;5057238;28;20206;-83
2022/03/28 05:15:16;;;;;;;4.13;3.72;;;;;;;;;;5057242;28;20228;-84
2022/03/28 05:17:43;;;;;;;4.15;3.85;;;;;;;;;;5057042;28;20199;-82
2022/03/28 05:20:12;;;;;;;3.88;3.38;;;;;;;;;;5057434;28;20589;-83
2022/03/28 05:22:40;;;;;;;4.60;4.20;;;;;;;;;;5056774;28;20205;-83
2022/03/28 05:25:10;;;;;;;4.88;4.00;;;;;;;;;;5055210;28;20202;-83
2022/03/28 05:27:43;;;;;;;3.80;3.47;;;;;;;;;;5056281;28;20218;-83
2022/03/28 05:30:12;;;;;;;4.03;3.63;;;;;;;;;;5056247;28;20221;-82
2022/03/28 05:32:40;;;;;;;3.28;2.97;;;;;;;;;;5056704;28;20197;-82
2022/03/28 05:35:09;;;;;;;4.57;4.18;;;;;;;;;;5056025;28;20204;-82
2022/03/28 05:37:37;;;;;;;4.72;3.50;;;;;;;;;;5055718;28;20657;-82
2022/03/28 05:40:07;;;;;;;3.78;3.47;;;;;;;;;;5056040;28;20320;-82
2022/03/28 05:42:34;;;;;;;3.13;2.92;;;;;;;;;;5055610;28;20198;-82
2022/03/28 05:45:02;;;;;;;4.07;3.70;;;;;;;;;;5055567;28;20202;-82
2022/03/28 05:47:29;;;;;;;4.30;3.40;;;;;;;;;;5055710;28;20225;-82
2022/03/28 05:49:56;;;;;;;3.40;3.00;;;;;;;;;;5055277;28;20205;-82
2022/03/28 05:52:24;;;;;;;5.10;4.30;;;;;;;;;;5055571;28;20202;-82
2022/03/28 05:54:51;;;;;;;4.57;4.15;;;;;;;;;;5055974;28;20251;-82
2022/03/28 05:57:20;;;;;;;4.20;3.80;;;;;;;;;;5055690;28;20204;-82
2022/03/28 05:59:47;;;;;;;3.90;3.50;;;;;;;;;;5056034;28;20227;-83
2022/03/28 06:02:15;;;;;;;3.47;3.17;;;;;;;;;;5055049;28;20209;-82
2022/03/28 06:04:42;;;;;;;4.38;3.90;;;;;;;;;;5054555;28;20567;-82
2022/03/28 06:07:10;;;;;;;4.30;3.90;;;;;;;;;;5043929;28;20224;-82
2022/03/28 06:09:38;;;;;;;5.70;5.03;;;;;;;;;;5048935;28;20675;-82
2022/03/28 06:12:06;;;;;;;4.90;4.32;;;;;;;;;;5048717;28;20581;-82
2022/03/28 06:14:35;;;;;;;5.30;4.80;;;;;;;;;;5056058;28;20202;-83
2022/03/28 06:17:02;;;;;;;5.18;4.78;;;;;;;;;;5055195;28;20578;-83
2022/03/28 06:19:30;;;;;;;4.53;4.13;;;;;;;;;;5054933;28;20202;-82
2022/03/28 06:21:57;;;;;;;6.10;5.50;;;;;;;;;;5055251;28;20225;-82
2022/03/28 06:24:25;;;;;;;4.18;3.72;;;;;;;;;;5054738;28;20585;-82
2022/03/28 06:26:52;;;;;;;5.25;4.70;;;;;;;;;;5054976;28;20209;-83
2022/03/28 06:29:20;;;;;;;4.00;3.60;;;;;;;;;;5056119;28;20225;-83
2022/03/28 06:31:49;;;;;;;4.60;4.20;;;;;;;;;;5054857;28;20690;-82
2022/03/28 06:34:16;;;;;;;6.47;5.50;;;;;;;;;;5041630;28;20213;-83
2022/03/28 06:36:45;;;;;;;6.38;5.78;;;;;;;;;;5057831;28;20717;-82
2022/03/28 06:39:13;;;;;;;5.10;4.70;;;;;;;;;;5052714;28;20201;-83
2022/03/28 06:41:40;;;;;;;5.00;4.50;;;;;;;;;;5058998;28;20225;-82
2022/03/28 06:44:11;;;;;;;7.45;6.53;;;;;;;;;;5052646;28;20212;-83
2022/03/28 06:46:39;;;;;;;5.47;4.97;;;;;;;;;;5059112;28;20581;-82
2022/03/28 06:49:08;;;;;;;4.80;4.40;;;;;;;;;;5059344;28;20233;-84
2022/03/28 06:51:35;;;;;;;5.00;4.60;;;;;;;;;;5058950;28;20233;-84
2022/03/28 06:54:05;;;;;;;5.88;5.32;;;;;;;;;;5059697;28;20584;-84
2022/03/28 06:56:34;;;;;;;5.35;4.85;;;;;;;;;;5061107;28;20205;-84
2022/03/28 06:59:01;;;;;;;6.60;5.93;;;;;;;;;;5060730;28;20208;-85
2022/03/28 07:01:28;;;;;;;11.18;7.13;;;;;;;;;;5059930;28;20699;-84
2022/03/28 07:03:56;;;;;;;12.35;6.78;;;;;;;;;;5060565;28;20610;-85
2022/03/28 07:06:24;;;;;;;7.32;6.60;;;;;;;;;;5059493;28;20258;-85
2022/03/28 07:08:53;;;;;;;7.55;5.85;;;;;;;;;;5059870;28;20229;-85
2022/03/28 07:11:20;;;;;;;6.93;6.10;;;;;;;;;;5059481;28;20682;-86
2022/03/28 07:13:48;;;;;;;5.45;5.05;;;;;;;;;;5059468;28;20214;-83
2022/03/28 07:16:15;;;;;;;12.55;8.15;;;;;;;;;;5060134;28;20206;-85
2022/03/28 07:18:42;;;;;;;8.73;7.85;;;;;;;;;;5059461;28;20213;-85
2022/03/28 07:21:10;;;;;;;7.38;6.68;;;;;;;;;;5061513;28;20279;-84
2022/03/28 07:23:38;;;;;;;8.75;7.22;;;;;;;;;;5060458;28;20218;-84
2022/03/28 07:26:06;;;;;;;6.55;5.97;;;;;;;;;;5055711;28;20216;-86
2022/03/28 07:28:35;;;;;;;5.07;4.68;;;;;;;;;;5057815;28;20293;-85
2022/03/28 07:31:02;;;;;;;6.45;5.85;;;;;;;;;;5059216;28;20416;-85
2022/03/28 07:33:30;;;;;;;7.50;6.78;;;;;;;;;;5059564;28;20202;-85
2022/03/28 07:36:01;;;;;;;6.60;6.00;;;;;;;;;;5059722;28;20204;-85
2022/03/28 07:38:28;;;;;;;6.15;5.55;;;;;;;;;;5059251;28;20252;-85
2022/03/28 07:40:57;;;;;;;5.05;4.55;;;;;;;;;;5058293;28;20228;-85
2022/03/28 07:43:24;;;;;;;6.93;5.38;;;;;;;;;;5057130;28;20569;-85
2022/03/28 07:45:54;;;;;;;8.00;7.25;;;;;;;;;;5060565;28;20206;-85
2022/03/28 07:48:22;;;;;;;7.03;6.35;;;;;;;;;;5058808;28;20319;-85
2022/03/28 07:50:50;;;;;;;7.15;5.90;;;;;;;;;;5059936;28;20236;-85
2022/03/28 07:53:18;;;;;;;5.60;5.10;;;;;;;;;;5057185;28;20289;-85
2022/03/28 07:55:46;;;;;;;6.72;6.13;;;;;;;;;;5058369;28;20288;-85
2022/03/28 07:58:14;;;;;;;7.72;7.03;;;;;;;;;;5057790;28;20206;-85
2022/03/28 08:00:41;;;;;;;6.95;6.25;;;;;;;;;;5057872;28;20694;-84
2022/03/28 08:03:09;;;;;;;5.80;5.30;;;;;;;;;;5056826;28;20209;-80
2022/03/28 08:05:36;;;;;;;5.25;4.85;;;;;;;;;;5057191;28;20667;-82
2022/03/28 08:08:04;;;;;;;5.57;5.07;;;;;;;;;;5057124;28;20263;-84
2022/03/28 08:10:31;;;;;;;6.78;6.13;;;;;;;;;;5056990;28;20233;-80
2022/03/28 08:13:01;;;;;;;7.05;6.35;;;;;;;;;;5055808;28;20549;-80
2022/03/28 08:15:30;;;;;;;6.78;6.18;;;;;;;;;;5056413;28;20201;-80
2022/03/28 08:18:00;;;;;;;6.13;5.60;;;;;;;;;;5056178;28;20201;-80
2022/03/28 08:20:28;;;;;;;7.18;6.57;;;;;;;;;;5055874;28;20363;-79
2022/03/28 08:22:55;;;;;;;6.53;5.85;;;;;;;;;;5055972;28;20711;-80
2022/03/28 08:25:24;;;;;;;5.93;5.32;;;;;;;;;;5055852;28;20208;-80
2022/03/28 08:27:51;;;;;;;9.30;8.27;;;;;;;;;;5055939;28;20228;-78
2022/03/28 08:30:19;;;;;;;6.10;5.60;;;;;;;;;;5055131;28;20236;-78
2022/03/28 08:32:48;;;;;;;7.93;7.18;;;;;;;;;;5055320;28;20205;-80
2022/03/28 08:35:15;;;;;;;5.40;4.97;;;;;;;;;;5056225;28;20678;-78
2022/03/28 08:37:43;;;;;;;6.32;5.72;;;;;;;;;;5055470;28;20563;-78
2022/03/28 08:40:11;;;;;;;5.72;5.22;;;;;;;;;;5055481;28;20214;-78
2022/03/28 08:42:40;;;;;;;7.68;6.57;;;;;;;;;;5055593;28;20204;-79
2022/03/28 08:45:11;;;;;;;8.48;7.28;;;;;;;;;;5055703;28;20201;-79
2022/03/28 08:47:42;;;;;;;7.57;6.88;;;;;;;;;;5055469;28;20228;-78
2022/03/28 08:50:12;;;;;;;7.70;7.03;;;;;;;;;;5055470;28;20693;-79
2022/03/28 08:52:40;;;;;;;7.90;7.20;;;;;;;;;;5055653;28;20182;-78
2022/03/28 08:55:09;;;;;;;6.13;5.63;;;;;;;;;;5055398;28;20709;-78
2022/03/28 08:57:37;;;;;;;6.15;5.25;;;;;;;;;;5054186;28;20224;-79
2022/03/28 09:00:06;;;;;;;6.95;6.35;;;;;;;;;;5054091;28;20233;-77
2022/03/28 09:02:41;;;;;;;6.60;6.00;;;;;;;;;;5054905;28;20210;-79
2022/03/28 09:05:11;;;;;;;8.73;7.82;;;;;;;;;;5055343;28;20638;-78
2022/03/28 09:07:39;;;;;;;8.50;7.65;;;;;;;;;;5055095;28;20198;-78
2022/03/28 09:10:12;;;;;;;7.80;7.03;;;;;;;;;;5054434;28;20225;-79
2022/03/28 09:13:01;;;;;;;6.05;5.55;;;;;;;;;;5055067;28;20248;-78
2022/03/28 09:15:43;;;;;;;6.70;6.10;;;;;;;;;;5054982;28;20182;-79
2022/03/28 09:18:21;;;;;;;6.75;6.15;;;;;;;;;;5055126;28;20193;-79
2022/03/28 09:20:52;;;;;;;6.53;5.93;;;;;;;;;;5054927;28;20217;-80
2022/03/28 09:23:40;;;;;;;6.85;6.25;;;;;;;;;;5054428;28;20210;-81
2022/03/28 09:26:16;;;;;;;6.60;6.00;;;;;;;;;;5055437;28;20198;-82
2022/03/28 09:28:49;;;;;;;7.82;7.03;;;;;;;;;;5055999;28;20186;-82
2022/03/28 09:31:26;;;;;;;6.53;6.00;;;;;;;;;;5056563;28;20597;-82
2022/03/28 09:34:13;;;;;;;6.63;6.10;;;;;;;;;;5055986;28;20177;-83
2022/03/28 09:36:50;;;;;;;6.85;6.25;;;;;;;;;;5055954;28;20193;-83
2022/03/28 09:39:20;;;;;;;7.80;7.00;;;;;;;;;;5055028;28;20185;-83
2022/03/28 09:42:01;;;;;;;6.70;5.82;;;;;;;;;;5055059;28;20301;-83
2022/03/28 09:44:40;;;;;;;6.53;5.93;;;;;;;;;;5055048;28;20690;-82
2022/03/28 09:47:10;;;;;;;6.93;6.35;;;;;;;;;;5055473;28;20189;-83
2022/03/28 09:49:39;;;;;;;8.68;7.97;;;;;;;;;;5054627;28;20186;-82
2022/03/28 09:52:12;;;;;;;6.18;5.68;;;;;;;;;;5053940;28;20233;-82
2022/03/28 09:54:50;;;;;;;5.90;5.40;;;;;;;;;;5054541;28;20182;-83
2022/03/28 09:57:22;;;;;;;6.13;5.65;;;;;;;;;;5055707;28;20186;-83
2022/03/28 09:59:50;;;;;;;8.23;6.57;;;;;;;;;;5055321;28;20263;-82
2022/03/28 10:02:22;;;;;;;5.07;4.68;;;;;;;;;;5055287;28;20208;-83
2022/03/28 10:04:52;;;;;;;5.38;4.88;;;;;;;;;;5055315;28;20208;-83
2022/03/28 10:07:22;;;;;;;11.50;7.57;;;;;;;;;;5056150;28;20201;-83
2022/03/28 10:09:52;;;;;;;7.22;6.53;;;;;;;;;;5055649;28;20207;-83
2022/03/28 10:12:20;;;;;;;6.97;6.43;;;;;;;;;;5059500;28;20192;-82
2022/03/28 10:14:50;;;;;;;5.95;5.45;;;;;;;;;;5059222;28;20205;-83
2022/03/28 10:17:19;;;;;;;5.50;5.03;;;;;;;;;;5059576;28;20231;-81
2022/03/28 10:19:47;;;;;;;5.60;4.90;;;;;;;;;;5058511;28;20597;-80
2022/03/28 10:22:20;;;;;;;7.20;6.32;;;;;;;;;;5058706;28;20598;-80
2022/03/28 10:24:51;;;;;;;7.68;6.57;;;;;;;;;;5058732;28;20200;-82
2022/03/28 10:27:19;;;;;;;5.25;4.85;;;;;;;;;;5058811;28;20197;-80
2022/03/28 10:29:46;;;;;;;6.88;6.30;;;;;;;;;;5058681;28;20208;-81
2022/03/28 10:32:17;;;;;;;7.63;6.97;;;;;;;;;;5058673;28;20682;-80
2022/03/28 10:34:48;;;;;;;6.45;5.85;;;;;;;;;;5058734;28;20201;-83
2022/03/28 10:37:31;;;;;;;6.07;5.57;;;;;;;;;;5066365;23;20225;-79
2022/03/28 10:40:29;;;;;;;5.40;4.90;;;;;;;;;;5035270;28;20654;-80
2022/03/28 10:43:09;;;;;;;6.55;5.97;;;;;;;;;;5037249;28;20210;-79
2022/03/28 10:45:39;;;;;;;6.38;5.53;;;;;;;;;;5036958;28;20662;-78
2022/03/28 10:48:08;;;;;;;5.53;5.10;;;;;;;;;;5037196;28;20222;-78
2022/03/28 10:50:48;;;;;;;5.68;5.18;;;;;;;;;;5036403;28;20234;-78
2022/03/28 10:53:16;;;;;;;6.25;5.70;;;;;;;;;;5036318;28;20570;-80
2022/03/28 10:55:51;;;;;;;6.63;6.05;;;;;;;;;;5037094;28;20217;-79
2022/03/28 10:58:22;;;;;;;6.68;6.07;;;;;;;;;;5036646;28;20230;-79
2022/03/28 11:01:30;;;;;;;5.70;5.20;;;;;;;;;;5037044;28;20206;-79
2022/03/28 11:04:04;;;;;;;3.40;3.10;;;;;;;;;;5011859;28;20210;-79
2022/03/28 11:07:00;;;;;;;4.80;4.20;;;;;;;;;;5014617;28;20214;-79
2022/03/28 11:09:47;;;;;;;5.10;4.70;;;;;;;;;;5030170;28;20706;-79
2022/03/28 11:12:18;;;;;;;4.00;3.70;;;;;;;;;;5036743;28;20303;-79
2022/03/28 11:14:55;;;;;;;4.30;4.00;;;;;;;;;;5037006;28;20211;-79
2022/03/28 11:17:24;;;;;;;5.60;5.10;;;;;;;;;;5037249;28;20297;-79
2022/03/28 11:20:00;;;;;;;4.35;4.05;;;;;;;;;;5036689;28;20313;-79
2022/03/28 11:22:47;;;;;;;6.15;5.65;;;;;;;;;;5035536;28;20206;-78
2022/03/28 11:25:42;;;;;;;4.05;3.78;;;;;;;;;;5036890;28;20202;-79
2022/03/28 11:28:15;;;;;;;4.32;3.92;;;;;;;;;;5030092;28;20226;-78
2022/03/28 11:30:52;;;;;;;4.97;4.57;;;;;;;;;;5030948;28;20705;-79
2022/03/28 11:33:22;;;;;;;5.93;5.35;;;;;;;;;;5036076;28;20742;-79
2022/03/28 11:35:56;;;;;;;6.78;4.70;;;;;;;;;;5036850;28;20237;-80
2022/03/28 11:38:25;;;;;;;4.13;3.83;;;;;;;;;;5033115;28;20266;-79
2022/03/28 11:40:53;;;;;;;5.35;4.85;;;;;;;;;;5036746;28;20206;-79
2022/03/28 11:43:30;;;;;;;5.97;5.47;;;;;;;;;;5036041;28;20245;-79
2022/03/28 11:45:59;;;;;;;5.82;5.32;;;;;;;;;;5035672;28;20213;-79
2022/03/28 11:48:26;;;;;;;7.00;6.40;;;;;;;;;;5036187;28;20295;-79
2022/03/28 11:50:55;;;;;;;7.25;6.65;;;;;;;;;;5036442;28;20233;-79
2022/03/28 11:53:23;;;;;;;6.15;5.65;;;;;;;;;;5035706;28;20356;-78
2022/03/28 11:55:53;;;;;;;7.32;6.53;;;;;;;;;;5036148;28;20229;-78
2022/03/28 11:58:31;;;;;;;6.72;5.30;;;;;;;;;;5035749;28;20712;-78
2022/03/28 12:01:09;;;;;;;4.68;3.60;;;;;;;;;;5030190;28;20253;-79
2022/03/28 12:03:38;;;;;;;3.05;2.85;;;;;;;;;;5036026;28;20637;-78
2022/03/28 12:06:06;;;;;;;5.20;4.72;;;;;;;;;;5035537;28;20250;-79
2022/03/28 12:08:33;;;;;;;4.60;4.20;;;;;;;;;;5035972;28;20229;-79
2022/03/28 12:11:01;;;;;;;4.38;3.97;;;;;;;;;;5035884;28;20213;-78
2022/03/28 12:13:29;;;;;;;6.30;5.78;;;;;;;;;;5035877;28;20206;-79
2022/03/28 12:15:57;;;;;;;6.88;6.22;;;;;;;;;;5035676;28;20674;-78
2022/03/28 12:18:31;;;;;;;4.70;4.30;;;;;;;;;;5035424;28;20248;-79
2022/03/28 12:20:58;;;;;;;5.18;4.75;;;;;;;;;;5035285;28;20304;-78
2022/03/28 12:23:28;;;;;;;5.97;5.35;;;;;;;;;;5034388;28;20218;-79
2022/03/28 12:25:56;;;;;;;6.18;5.57;;;;;;;;;;5035227;28;20206;-79
2022/03/28 12:28:34;;;;;;;7.30;6.60;;;;;;;;;;5034585;28;20241;-79
2022/03/28 12:31:03;;;;;;;7.50;6.80;;;;;;;;;;5035291;28;20272;-79
2022/03/28 12:33:33;;;;;;;6.55;5.50;;;;;;;;;;5034030;28;20210;-79
2022/03/28 12:36:03;;;;;;;7.18;6.57;;;;;;;;;;5036826;28;20217;-79
2022/03/28 12:38:32;;;;;;;6.05;5.53;;;;;;;;;;5037176;28;20222;-79
2022/03/28 12:41:03;;;;;;;5.40;4.90;;;;;;;;;;5038424;28;20207;-79
2022/03/28 12:43:33;;;;;;;6.88;6.28;;;;;;;;;;5035660;28;20633;-79
2022/03/28 12:46:03;;;;;;;4.28;3.88;;;;;;;;;;5037909;28;20293;-79
2022/03/28 12:48:42;;;;;;;5.43;4.95;;;;;;;;;;5035503;28;20234;-80
2022/03/28 12:51:11;;;;;;;6.00;5.50;;;;;;;;;;5038198;28;20209;-79
2022/03/28 12:53:40;;;;;;;5.72;5.22;;;;;;;;;;5037277;28;20707;-78
2022/03/28 12:56:17;;;;;;;7.72;6.93;;;;;;;;;;5035421;28;20240;-78
2022/03/28 12:58:54;;;;;;;6.55;5.95;;;;;;;;;;5035288;28;20258;-80
2022/03/28 13:01:29;;;;;;;6.70;6.10;;;;;;;;;;5037745;28;20528;-78
2022/03/28 13:04:09;;;;;;;6.88;6.28;;;;;;;;;;5037809;28;20206;-80
2022/03/28 13:06:40;;;;;;;5.50;5.05;;;;;;;;;;5036865;28;20237;-82
2022/03/28 13:09:08;;;;;;;4.57;4.18;;;;;;;;;;5029512;28;20317;-77
2022/03/28 13:11:36;;;;;;;6.32;5.82;;;;;;;;;;5036068;28;20202;-78
2022/03/28 13:14:06;;;;;;;5.15;4.75;;;;;;;;;;5036337;28;20210;-78
2022/03/28 13:16:34;;;;;;;5.63;5.13;;;;;;;;;;5038055;28;20203;-79
2022/03/28 13:19:04;;;;;;;6.57;6.07;;;;;;;;;;5035186;28;20230;-79
2022/03/28 13:21:36;;;;;;;6.90;6.30;;;;;;;;;;5036547;28;20288;-79
2022/03/28 13:24:12;;;;;;;8.10;7.30;;;;;;;;;;5034027;28;20216;-79
2022/03/28 13:26:45;;;;;;;6.80;6.20;;;;;;;;;;5035524;28;20208;-79
2022/03/28 13:29:24;;;;;;;7.57;6.78;;;;;;;;;;5034828;28;20268;-79
2022/03/28 13:31:53;;;;;;;7.63;6.85;;;;;;;;;;5035315;28;20209;-81
2022/03/28 13:34:20;;;;;;;6.70;6.05;;;;;;;;;;5035030;28;20292;-78
2022/03/28 13:36:48;;;;;;;9.02;7.47;;;;;;;;;;5035921;28;20260;-78
2022/03/28 13:39:15;;;;;;;7.97;7.00;;;;;;;;;;5035061;28;20292;-80
2022/03/28 13:41:42;;;;;;;8.18;7.38;;;;;;;;;;5036185;28;20209;-78
2022/03/28 13:44:10;;;;;;;6.22;5.63;;;;;;;;;;5035102;28;20210;-79
2022/03/28 13:46:39;;;;;;;5.28;4.78;;;;;;;;;;5036588;28;20252;-79
2022/03/28 13:49:07;;;;;;;6.97;6.28;;;;;;;;;;5036517;28;20234;-79
2022/03/28 13:51:34;;;;;;;6.78;6.22;;;;;;;;;;5035981;28;20626;-79
2022/03/28 13:54:03;;;;;;;7.57;6.80;;;;;;;;;;5033382;28;20237;-78
2022/03/28 13:56:31;;;;;;;5.60;5.13;;;;;;;;;;5033000;28;20210;-79
2022/03/28 13:58:58;;;;;;;9.45;8.52;;;;;;;;;;5032566;28;20230;-78
2022/03/28 14:01:29;;;;;;;8.93;8.07;;;;;;;;;;5032986;28;20214;-79
2022/03/28 14:04:00;;;;;;;7.55;6.72;;;;;;;;;;5033144;28;20213;-78
2022/03/28 14:06:28;;;;;;;8.10;6.72;;;;;;;;;;5033657;28;20212;-78
2022/03/28 14:08:56;;;;;;;6.78;6.13;;;;;;;;;;5033071;28;20249;-80
2022/03/28 14:11:23;;;;;;;7.88;7.00;;;;;;;;;;5033806;28;20213;-78
2022/03/28 14:13:51;;;;;;;7.35;6.65;;;;;;;;;;5033550;28;20229;-78
2022/03/28 14:16:20;;;;;;;8.77;7.85;;;;;;;;;;5033296;28;20289;-78
2022/03/28 14:18:48;;;;;;;5.65;5.05;;;;;;;;;;5032952;28;20302;-78
2022/03/28 14:21:17;;;;;;;7.22;6.53;;;;;;;;;;5033441;28;20636;-79
2022/03/28 14:23:44;;;;;;;8.15;7.35;;;;;;;;;;5032940;28;20632;-79
2022/03/28 14:26:13;;;;;;;7.15;6.45;;;;;;;;;;5033508;28;20275;-79
2022/03/28 14:28:40;;;;;;;6.05;5.50;;;;;;;;;;5033163;28;20228;-78
2022/03/28 14:31:08;;;;;;;9.40;7.97;;;;;;;;;;5032964;28;20604;-78
2022/03/28 14:33:36;;;;;;;7.97;7.22;;;;;;;;;;5032725;28;20229;-78
2022/03/28 14:36:04;;;;;;;8.77;7.93;;;;;;;;;;5032883;28;20605;-77
2022/03/28 14:38:32;;;;;;;7.13;6.47;;;;;;;;;;5033587;28;20285;-78
2022/03/28 14:41:01;;;;;;;8.05;6.97;;;;;;;;;;5033796;28;20207;-78
2022/03/28 14:43:28;;;;;;;7.10;6.18;;;;;;;;;;5032861;28;20210;-78
2022/03/28 14:48:40;;;;;;;8.57;7.70;;;;;;;;;;5034095;28;20237;-78
2022/03/28 14:51:07;;;;;;;8.25;7.25;;;;;;;;;;5035475;28;20256;-78
2022/03/28 14:53:36;;;;;;;8.27;7.35;;;;;;;;;;5032378;28;20230;-78
2022/03/28 14:56:04;;;;;;;8.55;6.90;;;;;;;;;;5031012;28;20207;-78
2022/03/28 14:58:32;;;;;;;9.95;8.20;;;;;;;;;;5035861;28;20236;-78
2022/03/28 15:00:59;;;;;;;8.98;7.07;;;;;;;;;;5035818;28;20666;-77